createdAt,value
2022-10-20T00:00:00.432Z,11.52
2022-10-20T00:01:00.968Z,11.52
2022-10-20T00:02:01.248Z,11.51
2022-10-20T00:03:01.067Z,11.51
2022-10-20T00:04:19.848Z,11.54
2022-10-20T00:05:01.038Z,11.54
2022-10-20T00:06:00.568Z,11.54
2022-10-20T00:07:00.668Z,11.54
2022-10-20T00:08:00.943Z,11.54
2022-10-20T00:09:01.362Z,11.55
2022-10-20T00:10:00.368Z,11.54
2022-10-20T00:11:00.791Z,11.55
2022-10-20T00:11:59.699Z,11.55
2022-10-20T00:12:59.449Z,11.54
2022-10-20T00:14:19.671Z,11.54
2022-10-20T00:15:00.942Z,11.54
2022-10-20T00:16:00.377Z,11.54
2022-10-20T00:17:00.517Z,11.54
2022-10-20T00:18:00.029Z,11.52
2022-10-20T00:19:00.562Z,11.52
2022-10-20T00:20:00.370Z,11.51
2022-10-20T00:21:00.373Z,11.52
2022-10-20T00:21:59.569Z,11.51
2022-10-20T00:23:00.777Z,11.51
2022-10-20T00:24:19.602Z,11.51
2022-10-20T00:25:00.813Z,11.51
2022-10-20T00:26:01.103Z,11.54
2022-10-20T00:26:59.862Z,11.52
2022-10-20T00:27:59.880Z,11.52
2022-10-20T00:28:59.553Z,11.51
2022-10-20T00:30:00.726Z,11.52
2022-10-20T00:31:01.054Z,11.52
2022-10-20T00:31:59.870Z,11.49
2022-10-20T00:32:59.881Z,11.52
2022-10-20T00:34:19.471Z,11.55
2022-10-20T00:35:00.644Z,11.55
2022-10-20T00:35:59.515Z,11.54
2022-10-20T00:37:00.746Z,11.52
2022-10-20T00:37:59.878Z,11.54
2022-10-20T00:39:00.865Z,11.54
2022-10-20T00:40:00.637Z,11.57
2022-10-20T00:41:00.909Z,11.58
2022-10-20T00:42:00.687Z,11.58
2022-10-20T00:42:59.717Z,11.58
2022-10-20T00:44:19.346Z,11.60
2022-10-20T00:45:00.536Z,11.58
2022-10-20T00:46:00.858Z,11.60
2022-10-20T00:47:00.637Z,11.58
2022-10-20T00:48:00.430Z,11.60
2022-10-20T00:49:00.746Z,11.61
2022-10-20T00:49:59.890Z,11.61
2022-10-20T00:51:00.787Z,11.61
2022-10-20T00:52:00.548Z,11.60
2022-10-20T00:53:00.102Z,11.60
2022-10-20T00:54:19.177Z,11.58
2022-10-20T00:54:59.880Z,11.57
2022-10-20T00:55:59.868Z,11.58
2022-10-20T00:57:00.450Z,11.57
2022-10-20T00:58:00.724Z,11.58
2022-10-20T00:59:00.004Z,11.57
2022-10-20T01:00:00.294Z,11.57
2022-10-20T01:01:00.582Z,11.55
2022-10-20T01:02:00.488Z,11.54
2022-10-20T01:03:00.667Z,11.55
2022-10-20T01:04:18.993Z,11.51
2022-10-20T01:05:00.696Z,11.51
2022-10-20T01:06:00.495Z,11.49
2022-10-20T01:06:58.882Z,11.49
2022-10-20T01:08:00.629Z,11.46
2022-10-20T01:08:58.996Z,11.47
2022-10-20T01:10:00.690Z,11.47
2022-10-20T01:11:00.481Z,11.46
2022-10-20T01:12:00.270Z,11.46
2022-10-20T01:12:59.425Z,11.44
2022-10-20T01:14:18.854Z,11.44
2022-10-20T01:15:00.550Z,11.44
2022-10-20T01:16:00.315Z,11.43
2022-10-20T01:17:00.162Z,11.44
2022-10-20T01:18:00.432Z,11.44
2022-10-20T01:19:00.221Z,11.44
2022-10-20T01:19:59.423Z,11.42
2022-10-20T01:21:00.318Z,11.44
2022-10-20T01:21:59.597Z,11.43
2022-10-20T01:23:00.364Z,11.43
2022-10-20T01:24:18.746Z,11.42
2022-10-20T01:25:00.400Z,11.40
2022-10-20T01:25:59.439Z,11.39
2022-10-20T01:27:00.497Z,11.40
2022-10-20T01:28:00.293Z,11.42
2022-10-20T01:29:00.098Z,11.43
2022-10-20T01:30:00.349Z,11.43
2022-10-20T01:31:00.141Z,11.40
2022-10-20T01:31:59.419Z,11.40
2022-10-20T01:32:59.809Z,11.42
2022-10-20T01:34:18.637Z,11.43
2022-10-20T01:35:00.347Z,11.43
2022-10-20T01:36:00.135Z,11.42
2022-10-20T01:36:59.919Z,11.43
2022-10-20T01:37:59.422Z,11.44
2022-10-20T01:38:59.977Z,11.44
2022-10-20T01:40:00.323Z,11.44
2022-10-20T01:41:00.116Z,11.43
2022-10-20T01:41:59.448Z,11.44
2022-10-20T01:43:00.179Z,11.44
2022-10-20T01:44:18.511Z,11.42
2022-10-20T01:45:00.219Z,11.43
2022-10-20T01:46:00.023Z,11.42
2022-10-20T01:46:59.037Z,11.43
2022-10-20T01:48:00.173Z,11.42
2022-10-20T01:48:59.927Z,11.43
2022-10-20T01:49:59.432Z,11.42
2022-10-20T01:50:59.993Z,11.43
2022-10-20T01:51:59.794Z,11.43
2022-10-20T01:53:00.094Z,11.40
2022-10-20T01:54:18.392Z,11.40
2022-10-20T01:54:59.616Z,11.42
2022-10-20T01:55:58.951Z,11.42
2022-10-20T01:57:00.220Z,11.40
2022-10-20T01:57:59.498Z,11.40
2022-10-20T01:58:59.284Z,11.40
2022-10-20T01:59:59.589Z,11.40
2022-10-20T02:00:59.808Z,11.39
2022-10-20T02:01:58.982Z,11.39
2022-10-20T02:02:59.877Z,11.40
2022-10-20T02:04:18.204Z,11.39
2022-10-20T02:04:59.912Z,11.39
2022-10-20T02:05:59.684Z,11.40
2022-10-20T02:06:59.969Z,11.40
2022-10-20T02:07:58.934Z,11.44
2022-10-20T02:09:00.173Z,11.43
2022-10-20T02:09:58.515Z,11.42
2022-10-20T02:10:59.313Z,11.42
2022-10-20T02:11:59.625Z,11.43
2022-10-20T02:12:58.951Z,11.40
2022-10-20T02:14:18.294Z,11.42
2022-10-20T02:14:59.524Z,11.40
2022-10-20T02:15:59.339Z,11.37
2022-10-20T02:16:58.857Z,11.36
2022-10-20T02:17:59.454Z,11.36
2022-10-20T02:19:58.236Z,11.35
2022-10-20T02:20:59.945Z,11.36
2022-10-20T02:21:59.875Z,11.35
2022-10-20T02:22:59.114Z,11.35
2022-10-20T02:24:18.485Z,11.33
2022-10-20T02:24:59.195Z,11.33
2022-10-20T02:25:58.945Z,11.32
2022-10-20T02:26:59.923Z,11.33
2022-10-20T02:28:59.077Z,11.35
2022-10-20T02:29:59.375Z,11.33
2022-10-20T02:30:58.956Z,11.33
2022-10-20T02:31:58.953Z,11.35
2022-10-20T02:32:58.866Z,11.35
2022-10-20T02:34:18.228Z,11.35
2022-10-20T02:34:58.087Z,11.32
2022-10-20T02:35:59.817Z,11.32
2022-10-20T02:36:58.977Z,11.32
2022-10-20T02:37:59.452Z,11.33
2022-10-20T02:38:58.321Z,11.33
2022-10-20T02:39:59.048Z,11.33
2022-10-20T02:40:59.348Z,11.33
2022-10-20T02:41:59.658Z,11.32
2022-10-20T02:42:58.471Z,11.33
2022-10-20T02:44:18.308Z,11.37
2022-10-20T02:44:59.005Z,11.36
2022-10-20T02:45:58.788Z,11.36
2022-10-20T02:46:59.569Z,11.36
2022-10-20T02:47:59.354Z,11.36
2022-10-20T02:48:59.138Z,11.37
2022-10-20T02:49:58.462Z,11.37
2022-10-20T02:50:58.080Z,11.37
2022-10-20T02:51:59.530Z,11.37
2022-10-20T02:52:59.318Z,11.39
2022-10-20T02:54:18.163Z,11.40
2022-10-20T02:54:59.360Z,11.40
2022-10-20T02:55:58.479Z,11.40
2022-10-20T02:56:59.432Z,11.42
2022-10-20T02:57:58.436Z,11.42
2022-10-20T02:58:59.533Z,11.42
2022-10-20T02:59:59.352Z,11.44
2022-10-20T03:00:59.141Z,11.46
2022-10-20T03:01:58.499Z,11.44
2022-10-20T03:02:59.202Z,11.44
2022-10-20T03:04:18.085Z,11.43
2022-10-20T03:04:59.237Z,11.46
2022-10-20T03:05:58.524Z,11.47
2022-10-20T03:06:58.850Z,11.47
2022-10-20T03:07:58.475Z,11.51
2022-10-20T03:08:59.004Z,11.51
2022-10-20T03:09:59.198Z,11.49
2022-10-20T03:10:58.501Z,11.51
2022-10-20T03:11:58.555Z,11.51
2022-10-20T03:12:59.088Z,11.52
2022-10-20T03:14:17.937Z,11.54
2022-10-20T03:14:59.145Z,11.54
2022-10-20T03:15:58.433Z,11.54
2022-10-20T03:16:59.227Z,11.54
2022-10-20T03:17:58.534Z,11.55
2022-10-20T03:19:03.339Z,11.55
2022-10-20T03:19:59.490Z,11.55
2022-10-20T03:20:57.440Z,11.57
2022-10-20T03:21:58.711Z,11.57
2022-10-20T03:22:59.013Z,11.58
2022-10-20T03:24:17.832Z,11.60
2022-10-20T03:24:59.052Z,11.58
2022-10-20T03:25:57.389Z,11.61
2022-10-20T03:26:59.092Z,11.61
2022-10-20T03:27:58.871Z,11.61
2022-10-20T03:28:59.146Z,11.62
2022-10-20T03:29:58.966Z,11.61
2022-10-20T03:30:58.001Z,11.62
2022-10-20T03:31:59.081Z,11.62
2022-10-20T03:32:58.865Z,11.62
2022-10-20T03:34:17.704Z,11.64
2022-10-20T03:34:58.424Z,11.65
2022-10-20T03:35:58.187Z,11.67
2022-10-20T03:36:58.890Z,11.67
2022-10-20T03:37:57.666Z,11.69
2022-10-20T03:38:59.111Z,11.70
2022-10-20T03:39:58.103Z,11.70
2022-10-20T03:40:58.670Z,11.70
2022-10-20T03:41:58.849Z,11.70
2022-10-20T03:42:58.643Z,11.72
2022-10-20T03:44:17.573Z,11.73
2022-10-20T03:44:58.302Z,11.73
2022-10-20T03:45:57.142Z,11.75
2022-10-20T03:46:58.898Z,11.75
2022-10-20T03:47:58.178Z,11.75
2022-10-20T03:48:57.996Z,11.73
2022-10-20T03:49:58.302Z,11.72
2022-10-20T03:50:58.519Z,11.73
2022-10-20T03:51:58.800Z,11.75
2022-10-20T03:52:57.229Z,11.75
2022-10-20T03:54:17.477Z,11.78
2022-10-20T03:54:58.174Z,11.79
2022-10-20T03:55:58.176Z,11.78
2022-10-20T03:56:57.302Z,11.79
2022-10-20T03:57:58.533Z,11.78
2022-10-20T03:58:58.379Z,11.79
2022-10-20T03:59:58.015Z,11.79
2022-10-20T04:00:57.958Z,11.79
2022-10-20T04:01:58.854Z,11.79
2022-10-20T04:02:58.552Z,11.78
2022-10-20T04:04:17.376Z,11.79
2022-10-20T04:04:58.100Z,11.78
2022-10-20T04:05:58.028Z,11.79
2022-10-20T04:06:57.898Z,11.80
2022-10-20T04:07:57.936Z,11.80
2022-10-20T04:08:58.263Z,11.80
2022-10-20T04:09:57.158Z,11.79
2022-10-20T04:10:57.511Z,11.79
2022-10-20T04:11:57.529Z,11.80
2022-10-20T04:12:58.422Z,11.82
2022-10-20T04:14:17.255Z,11.82
2022-10-20T04:14:57.682Z,11.82
2022-10-20T04:15:58.276Z,11.82
2022-10-20T04:16:57.170Z,11.82
2022-10-20T04:17:57.533Z,11.80
2022-10-20T04:18:58.213Z,11.82
2022-10-20T04:19:57.991Z,11.82
2022-10-20T04:20:58.275Z,11.80
2022-10-20T04:21:58.546Z,11.82
2022-10-20T04:22:58.338Z,11.80
2022-10-20T04:24:17.159Z,11.82
2022-10-20T04:24:57.006Z,11.82
2022-10-20T04:25:57.687Z,11.82
2022-10-20T04:26:57.980Z,11.82
2022-10-20T04:27:58.267Z,11.82
2022-10-20T04:28:58.565Z,11.83
2022-10-20T04:29:57.530Z,11.83
2022-10-20T04:30:57.629Z,11.85
2022-10-20T04:31:58.424Z,11.85
2022-10-20T04:32:58.262Z,11.85
2022-10-20T04:34:18.520Z,11.86
2022-10-20T04:34:56.880Z,11.88
2022-10-20T04:35:57.530Z,11.90
2022-10-20T04:36:57.869Z,11.94
2022-10-20T04:37:58.160Z,11.94
2022-10-20T04:38:57.056Z,11.96
2022-10-20T04:39:58.292Z,11.96
2022-10-20T04:41:00.343Z,11.98
2022-10-20T04:41:58.530Z,11.99
2022-10-20T04:42:56.728Z,12.01
2022-10-20T04:44:16.900Z,12.01
2022-10-20T04:45:59.247Z,12.02
2022-10-20T04:46:58.173Z,12.01
2022-10-20T04:47:57.450Z,12.02
2022-10-20T04:48:57.752Z,12.02
2022-10-20T04:49:57.251Z,12.04
2022-10-20T04:50:58.272Z,12.04
2022-10-20T04:52:00.976Z,12.02
2022-10-20T04:52:57.804Z,12.04
2022-10-20T04:54:16.632Z,12.02
2022-10-20T04:54:57.832Z,12.02
2022-10-20T04:55:58.169Z,12.04
2022-10-20T04:56:57.444Z,12.04
2022-10-20T04:57:58.226Z,12.02
2022-10-20T04:58:57.236Z,12.02
2022-10-20T04:59:57.034Z,12.02
2022-10-20T05:00:56.757Z,12.01
2022-10-20T05:01:57.875Z,12.02
2022-10-20T05:02:58.171Z,12.01
2022-10-20T05:04:16.455Z,12.01
2022-10-20T05:04:57.714Z,11.99
2022-10-20T05:05:57.053Z,11.99
2022-10-20T05:06:57.289Z,11.98
2022-10-20T05:07:57.315Z,11.96
2022-10-20T05:08:56.585Z,11.96
2022-10-20T05:09:56.667Z,11.95
2022-10-20T05:10:57.905Z,11.95
2022-10-20T05:11:57.053Z,11.95
2022-10-20T05:12:57.456Z,11.94
2022-10-20T05:14:17.217Z,11.94
2022-10-20T05:14:57.989Z,11.94
2022-10-20T05:15:57.739Z,11.91
2022-10-20T05:16:57.056Z,11.90
2022-10-20T05:17:56.418Z,11.91
2022-10-20T05:18:58.080Z,11.91
2022-10-20T05:19:57.848Z,11.90
2022-10-20T05:21:08.370Z,11.88
2022-10-20T05:21:57.061Z,11.88
2022-10-20T05:22:56.062Z,11.85
2022-10-20T05:24:19.842Z,11.86
2022-10-20T05:25:12.746Z,11.85
2022-10-20T05:25:57.496Z,11.83
2022-10-20T05:26:57.689Z,11.83
2022-10-20T05:27:57.921Z,11.82
2022-10-20T05:28:57.061Z,11.82
2022-10-20T05:29:57.452Z,11.82
2022-10-20T05:31:00.642Z,11.79
2022-10-20T05:31:57.523Z,11.79
2022-10-20T05:32:57.035Z,11.76
2022-10-20T05:34:17.553Z,11.78
2022-10-20T05:34:57.831Z,11.75
2022-10-20T05:35:57.593Z,11.72
2022-10-20T05:36:57.869Z,11.72
2022-10-20T05:37:57.144Z,11.70
2022-10-20T05:38:57.411Z,11.69
2022-10-20T05:39:57.664Z,11.67
2022-10-20T05:40:57.434Z,11.65
2022-10-20T05:41:57.786Z,11.65
2022-10-20T05:42:56.221Z,11.65
2022-10-20T05:44:16.359Z,11.69
2022-10-20T05:44:57.314Z,11.70
2022-10-20T05:45:56.578Z,11.69
2022-10-20T05:46:56.087Z,11.69
2022-10-20T05:47:57.650Z,11.69
2022-10-20T05:48:57.405Z,11.69
2022-10-20T05:49:57.727Z,11.65
2022-10-20T05:50:56.947Z,11.65
2022-10-20T05:51:56.436Z,11.64
2022-10-20T05:52:56.199Z,11.64
2022-10-20T05:54:16.311Z,11.65
2022-10-20T05:54:57.192Z,11.65
2022-10-20T05:55:57.955Z,11.65
2022-10-20T05:56:55.855Z,11.67
2022-10-20T05:57:56.578Z,11.67
2022-10-20T05:58:55.894Z,11.69
2022-10-20T05:59:56.187Z,11.67
2022-10-20T06:00:55.977Z,11.69
2022-10-20T06:01:57.158Z,11.69
2022-10-20T06:02:55.968Z,11.67
2022-10-20T06:04:17.075Z,11.70
2022-10-20T06:04:56.927Z,11.70
2022-10-20T06:05:57.212Z,11.70
2022-10-20T06:06:56.061Z,11.72
2022-10-20T06:07:57.267Z,11.70
2022-10-20T06:08:56.355Z,11.72
2022-10-20T06:09:56.567Z,11.72
2022-10-20T06:10:57.050Z,11.73
2022-10-20T06:11:56.026Z,11.75
2022-10-20T06:12:57.130Z,11.75
2022-10-20T06:14:15.954Z,11.78
2022-10-20T06:14:56.986Z,11.76
2022-10-20T06:15:55.867Z,11.82
2022-10-20T06:16:55.729Z,11.83
2022-10-20T06:17:58.197Z,11.86
2022-10-20T06:18:55.666Z,11.86
2022-10-20T06:19:56.716Z,11.90
2022-10-20T06:20:55.702Z,11.88
2022-10-20T06:21:56.636Z,11.90
2022-10-20T06:22:55.739Z,11.94
2022-10-20T06:24:15.987Z,11.94
2022-10-20T06:24:56.695Z,11.94
2022-10-20T06:25:55.532Z,11.96
2022-10-20T06:26:55.817Z,11.96
2022-10-20T06:27:55.639Z,11.98
2022-10-20T06:28:59.795Z,11.99
2022-10-20T06:29:58.077Z,12.02
2022-10-20T06:30:56.836Z,12.02
2022-10-20T06:31:55.780Z,12.04
2022-10-20T06:32:56.881Z,12.05
2022-10-20T06:34:15.772Z,12.09
2022-10-20T06:34:55.442Z,12.05
2022-10-20T06:35:57.144Z,12.09
2022-10-20T06:36:55.479Z,12.09
2022-10-20T06:37:56.679Z,12.13
2022-10-20T06:38:55.511Z,12.12
2022-10-20T06:39:55.793Z,12.14
2022-10-20T06:40:55.555Z,12.16
2022-10-20T06:41:55.431Z,12.14
2022-10-20T06:44:15.326Z,12.20
2022-10-20T06:44:57.049Z,12.21
2022-10-20T06:45:55.391Z,12.23
2022-10-20T06:46:55.703Z,12.23
2022-10-20T06:47:55.442Z,12.27
2022-10-20T06:48:58.679Z,12.29
2022-10-20T06:49:55.481Z,12.31
2022-10-20T06:50:55.765Z,12.34
2022-10-20T06:51:55.434Z,12.32
2022-10-20T06:52:55.172Z,12.35
2022-10-20T06:54:15.420Z,12.38
2022-10-20T06:54:55.153Z,12.35
2022-10-20T06:55:55.405Z,12.38
2022-10-20T06:56:55.140Z,12.39
2022-10-20T06:57:55.383Z,12.41
2022-10-20T06:58:55.131Z,12.42
2022-10-20T06:59:55.383Z,12.46
2022-10-20T07:00:55.116Z,12.47
2022-10-20T07:01:54.596Z,12.47
2022-10-20T07:02:54.576Z,12.50
2022-10-20T07:04:15.335Z,12.49
2022-10-20T07:04:55.072Z,12.50
2022-10-20T07:05:55.579Z,12.52
2022-10-20T07:06:54.517Z,12.54
2022-10-20T07:07:54.506Z,12.57
2022-10-20T07:08:55.409Z,12.59
2022-10-20T07:09:55.547Z,12.62
2022-10-20T07:10:55.286Z,12.65
2022-10-20T07:11:55.041Z,12.67
2022-10-20T07:12:55.266Z,12.68
2022-10-20T07:14:15.045Z,12.71
2022-10-20T07:14:55.255Z,12.71
2022-10-20T07:15:55.010Z,12.71
2022-10-20T07:16:56.772Z,12.74
2022-10-20T07:17:55.188Z,12.74
2022-10-20T07:18:56.388Z,12.77
2022-10-20T07:19:56.686Z,12.79
2022-10-20T07:20:55.296Z,12.79
2022-10-20T07:21:55.647Z,12.78
2022-10-20T07:22:55.346Z,12.78
2022-10-20T07:24:14.889Z,12.82
2022-10-20T07:24:56.100Z,12.82
2022-10-20T07:25:55.919Z,12.83
2022-10-20T07:26:56.199Z,12.83
2022-10-20T07:27:55.659Z,12.83
2022-10-20T07:28:56.762Z,12.85
2022-10-20T07:29:56.558Z,12.86
2022-10-20T07:30:56.330Z,12.87
2022-10-20T07:31:57.805Z,12.89
2022-10-20T07:32:56.440Z,12.92
2022-10-20T07:34:30.714Z,12.93
2022-10-20T07:34:57.498Z,12.95
2022-10-20T07:35:56.279Z,12.95
2022-10-20T07:36:56.189Z,12.95
2022-10-20T07:37:56.369Z,12.97
2022-10-20T07:38:56.661Z,12.96
2022-10-20T07:39:55.075Z,13.00
2022-10-20T07:40:57.302Z,12.97
2022-10-20T07:41:55.646Z,12.97
2022-10-20T07:42:55.615Z,13.01
2022-10-20T07:44:14.178Z,13.03
2022-10-20T07:44:54.651Z,13.03
2022-10-20T07:45:55.149Z,13.07
2022-10-20T07:46:55.573Z,13.08
2022-10-20T07:47:55.914Z,13.12
2022-10-20T07:48:54.798Z,13.15
2022-10-20T07:49:56.034Z,13.19
2022-10-20T07:50:55.656Z,13.20
2022-10-20T07:51:56.171Z,13.26
2022-10-20T07:52:56.445Z,13.32
2022-10-20T07:54:14.756Z,13.39
2022-10-20T07:55:06.340Z,13.42
2022-10-20T07:55:57.330Z,13.51
2022-10-20T07:56:55.469Z,13.55
2022-10-20T07:57:56.260Z,13.59
2022-10-20T07:58:54.674Z,13.64
2022-10-20T07:59:55.833Z,13.71
2022-10-20T08:00:55.622Z,13.82
2022-10-20T08:01:56.304Z,13.88
2022-10-20T08:02:55.475Z,13.97
2022-10-20T08:04:14.629Z,14.00
2022-10-20T08:04:56.370Z,13.99
2022-10-20T08:05:54.759Z,13.97
2022-10-20T08:06:55.907Z,13.99
2022-10-20T08:07:55.182Z,13.99
2022-10-20T08:08:56.053Z,13.99
2022-10-20T08:09:56.299Z,13.97
2022-10-20T08:10:55.617Z,13.96
2022-10-20T08:11:56.134Z,13.99
2022-10-20T08:12:54.837Z,14.02
2022-10-20T08:14:14.570Z,14.03
2022-10-20T08:14:59.164Z,14.03
2022-10-20T08:16:04.465Z,14.04
2022-10-20T08:16:57.253Z,14.03
2022-10-20T08:17:56.639Z,14.00
2022-10-20T08:20:03.174Z,13.95
2022-10-20T08:20:55.570Z,13.92
2022-10-20T08:21:54.435Z,13.89
2022-10-20T08:22:56.180Z,13.89
2022-10-20T08:24:14.507Z,13.91
2022-10-20T08:24:55.704Z,13.89
2022-10-20T08:25:55.184Z,13.91
2022-10-20T08:26:55.843Z,13.92
2022-10-20T08:27:56.150Z,13.92
2022-10-20T08:28:55.913Z,13.92
2022-10-20T08:30:06.171Z,13.97
2022-10-20T08:30:56.195Z,14.02
2022-10-20T08:31:55.784Z,14.14
2022-10-20T08:32:56.076Z,14.21
2022-10-20T08:34:14.408Z,14.42
2022-10-20T08:34:54.233Z,14.54
2022-10-20T08:35:55.437Z,14.80
2022-10-20T08:36:54.279Z,14.98
2022-10-20T08:37:56.003Z,15.13
2022-10-20T08:38:55.837Z,15.17
2022-10-20T08:39:55.621Z,15.14
2022-10-20T08:40:55.917Z,15.13
2022-10-20T08:42:08.087Z,15.07
2022-10-20T08:42:56.188Z,14.96
2022-10-20T08:44:14.618Z,14.98
2022-10-20T08:44:55.538Z,15.01
2022-10-20T08:45:55.074Z,14.99
2022-10-20T08:46:55.607Z,15.01
2022-10-20T08:47:55.900Z,15.07
2022-10-20T08:48:54.289Z,15.11
2022-10-20T08:49:54.336Z,15.14
2022-10-20T08:50:55.888Z,15.10
2022-10-20T08:51:55.691Z,15.06
2022-10-20T08:52:54.936Z,15.03
2022-10-20T08:54:14.255Z,14.94
2022-10-20T08:54:55.460Z,14.88
2022-10-20T08:55:54.963Z,14.84
2022-10-20T08:56:54.119Z,14.80
2022-10-20T08:57:55.853Z,14.73
2022-10-20T08:58:55.641Z,14.64
2022-10-20T08:59:54.700Z,14.60
2022-10-20T09:00:54.290Z,14.60
2022-10-20T09:01:55.049Z,14.60
2022-10-20T09:02:55.760Z,14.58
2022-10-20T09:04:14.085Z,14.60
2022-10-20T09:04:54.176Z,14.61
2022-10-20T09:05:54.713Z,14.60
2022-10-20T09:06:54.085Z,14.60
2022-10-20T09:07:54.796Z,14.60
2022-10-20T09:08:55.657Z,14.60
2022-10-20T09:09:55.370Z,14.60
2022-10-20T09:10:54.279Z,14.61
2022-10-20T09:11:54.688Z,14.62
2022-10-20T09:12:55.270Z,14.64
2022-10-20T09:14:14.088Z,14.64
2022-10-20T09:14:55.298Z,14.64
2022-10-20T09:15:55.574Z,14.64
2022-10-20T09:17:00.190Z,14.65
2022-10-20T09:17:55.697Z,14.70
2022-10-20T09:18:54.927Z,14.75
2022-10-20T09:19:55.219Z,14.77
2022-10-20T09:20:54.771Z,14.81
2022-10-20T09:21:54.861Z,14.84
2022-10-20T09:22:55.194Z,14.88
2022-10-20T09:24:13.939Z,14.84
2022-10-20T09:24:55.185Z,14.84
2022-10-20T09:25:55.470Z,14.84
2022-10-20T09:26:59.235Z,14.84
2022-10-20T09:27:56.094Z,14.84
2022-10-20T09:29:12.151Z,14.84
2022-10-20T09:29:54.770Z,14.86
2022-10-20T09:30:54.940Z,14.86
2022-10-20T09:31:55.213Z,14.86
2022-10-20T09:32:55.006Z,14.86
2022-10-20T09:34:13.829Z,14.89
2022-10-20T09:34:55.046Z,14.89
2022-10-20T09:35:54.221Z,14.91
2022-10-20T09:36:53.944Z,14.91
2022-10-20T09:37:54.969Z,14.92
2022-10-20T09:38:55.243Z,14.95
2022-10-20T09:39:55.802Z,14.95
2022-10-20T09:40:53.940Z,14.92
2022-10-20T09:41:55.165Z,14.92
2022-10-20T09:42:54.912Z,14.92
2022-10-20T09:44:13.734Z,14.95
2022-10-20T09:44:54.942Z,14.94
2022-10-20T09:45:55.206Z,14.94
2022-10-20T09:46:55.047Z,14.94
2022-10-20T09:47:54.504Z,14.94
2022-10-20T09:48:53.658Z,14.94
2022-10-20T09:49:59.898Z,14.94
2022-10-20T09:50:54.720Z,14.94
2022-10-20T09:51:53.785Z,14.95
2022-10-20T09:52:54.228Z,14.96
2022-10-20T09:54:13.568Z,14.99
2022-10-20T09:54:54.817Z,14.99
2022-10-20T09:55:54.329Z,14.99
2022-10-20T09:56:54.871Z,15.02
2022-10-20T09:57:54.228Z,15.03
2022-10-20T09:58:54.225Z,15.06
2022-10-20T09:59:54.749Z,15.06
2022-10-20T10:00:55.105Z,15.06
2022-10-20T10:01:53.450Z,15.07
2022-10-20T10:02:53.720Z,15.07
2022-10-20T10:04:13.453Z,15.10
2022-10-20T10:04:53.250Z,15.11
2022-10-20T10:05:54.947Z,15.11
2022-10-20T10:06:54.730Z,15.11
2022-10-20T10:07:55.086Z,15.13
2022-10-20T10:08:54.122Z,15.11
2022-10-20T10:09:54.231Z,15.10
2022-10-20T10:10:53.557Z,15.09
2022-10-20T10:11:53.340Z,15.10
2022-10-20T10:12:55.035Z,15.07
2022-10-20T10:14:13.332Z,15.07
2022-10-20T10:14:53.631Z,15.06
2022-10-20T10:15:54.241Z,15.06
2022-10-20T10:16:54.700Z,15.06
2022-10-20T10:17:54.991Z,15.03
2022-10-20T10:18:53.410Z,15.03
2022-10-20T10:19:55.614Z,15.02
2022-10-20T10:20:53.773Z,15.03
2022-10-20T10:21:53.756Z,15.02
2022-10-20T10:22:53.580Z,15.02
2022-10-20T10:24:13.324Z,15.02
2022-10-20T10:24:53.114Z,15.02
2022-10-20T10:25:57.895Z,15.02
2022-10-20T10:26:54.755Z,14.99
2022-10-20T10:27:54.909Z,14.99
2022-10-20T10:28:54.709Z,14.99
2022-10-20T10:29:53.719Z,14.99
2022-10-20T10:30:54.839Z,14.96
2022-10-20T10:31:54.610Z,14.96
2022-10-20T10:32:53.764Z,14.94
2022-10-20T10:34:13.213Z,14.92
2022-10-20T10:34:52.997Z,14.91
2022-10-20T10:35:54.202Z,14.91
2022-10-20T10:36:54.487Z,14.89
2022-10-20T10:37:54.762Z,14.86
2022-10-20T10:38:53.198Z,14.86
2022-10-20T10:39:54.384Z,14.86
2022-10-20T10:40:54.703Z,14.84
2022-10-20T10:41:54.583Z,14.83
2022-10-20T10:42:54.341Z,14.83
2022-10-20T10:44:13.165Z,14.77
2022-10-20T10:44:53.603Z,14.78
2022-10-20T10:45:54.766Z,14.77
2022-10-20T10:46:54.036Z,14.73
2022-10-20T10:47:54.336Z,14.72
2022-10-20T10:48:54.121Z,14.73
2022-10-20T10:49:54.421Z,14.72
2022-10-20T10:50:54.707Z,14.69
2022-10-20T10:51:53.067Z,14.69
2022-10-20T10:52:54.279Z,14.68
2022-10-20T10:54:13.108Z,14.64
2022-10-20T10:54:53.090Z,14.62
2022-10-20T10:55:53.777Z,14.62
2022-10-20T10:56:54.555Z,14.61
2022-10-20T10:57:54.335Z,14.60
2022-10-20T10:58:53.844Z,14.60
2022-10-20T10:59:54.405Z,14.58
2022-10-20T11:00:53.755Z,14.55
2022-10-20T11:01:53.771Z,14.57
2022-10-20T11:02:54.271Z,14.55
2022-10-20T11:04:13.076Z,14.58
2022-10-20T11:04:54.269Z,14.58
2022-10-20T11:05:54.062Z,14.60
2022-10-20T11:06:55.690Z,14.58
2022-10-20T11:07:52.738Z,14.58
2022-10-20T11:08:53.045Z,14.60
2022-10-20T11:09:52.936Z,14.60
2022-10-20T11:10:53.978Z,14.60
2022-10-20T11:11:54.249Z,14.61
2022-10-20T11:12:53.287Z,14.62
2022-10-20T11:14:12.908Z,14.62
2022-10-20T11:14:54.076Z,14.61
2022-10-20T11:15:53.883Z,14.61
2022-10-20T11:16:53.676Z,14.58
2022-10-20T11:17:53.999Z,14.58
2022-10-20T11:18:53.289Z,14.57
2022-10-20T11:19:53.576Z,14.57
2022-10-20T11:20:52.944Z,14.57
2022-10-20T11:21:54.184Z,14.55
2022-10-20T11:22:53.930Z,14.57
2022-10-20T11:24:12.749Z,14.58
2022-10-20T11:24:53.932Z,14.58
2022-10-20T11:25:53.693Z,14.57
2022-10-20T11:26:54.115Z,14.57
2022-10-20T11:27:52.500Z,14.60
2022-10-20T11:28:53.690Z,14.60
2022-10-20T11:29:53.328Z,14.61
2022-10-20T11:30:54.269Z,14.65
2022-10-20T11:31:53.284Z,14.68
2022-10-20T11:32:53.850Z,14.69
2022-10-20T11:34:12.665Z,14.70
2022-10-20T11:34:53.882Z,14.70
2022-10-20T11:35:53.315Z,14.73
2022-10-20T11:36:53.974Z,14.75
2022-10-20T11:37:53.739Z,14.81
2022-10-20T11:38:54.029Z,14.84
2022-10-20T11:39:53.797Z,14.89
2022-10-20T11:40:52.733Z,14.95
2022-10-20T11:41:53.304Z,14.96
2022-10-20T11:42:52.330Z,15.01
2022-10-20T11:44:12.570Z,15.06
2022-10-20T11:44:53.270Z,15.07
2022-10-20T11:45:53.556Z,15.11
2022-10-20T11:46:53.910Z,15.14
2022-10-20T11:47:52.256Z,15.20
2022-10-20T11:48:53.973Z,15.23
2022-10-20T11:49:53.732Z,15.31
2022-10-20T11:50:54.088Z,15.32
2022-10-20T11:51:53.360Z,15.36
2022-10-20T11:52:52.810Z,15.41
2022-10-20T11:54:13.169Z,15.41
2022-10-20T11:54:52.952Z,15.43
2022-10-20T11:55:53.395Z,15.46
2022-10-20T11:56:53.853Z,15.53
2022-10-20T11:57:56.402Z,15.60
2022-10-20T11:58:54.917Z,15.68
2022-10-20T11:59:52.816Z,15.71
2022-10-20T12:00:55.200Z,15.72
2022-10-20T12:01:51.687Z,15.74
2022-10-20T12:02:53.727Z,15.69
2022-10-20T12:04:12.054Z,15.69
2022-10-20T12:04:53.264Z,15.69
2022-10-20T12:05:53.542Z,15.68
2022-10-20T12:06:53.831Z,15.67
2022-10-20T12:08:00.806Z,15.65
2022-10-20T12:08:54.934Z,15.62
2022-10-20T12:09:53.705Z,15.64
2022-10-20T12:10:52.204Z,15.62
2022-10-20T12:11:52.404Z,15.64
2022-10-20T12:12:53.620Z,15.62
2022-10-20T12:14:11.946Z,15.59
2022-10-20T12:14:53.658Z,15.57
2022-10-20T12:15:53.446Z,15.56
2022-10-20T12:16:53.738Z,15.56
2022-10-20T12:17:52.856Z,15.54
2022-10-20T12:18:53.362Z,15.54
2022-10-20T12:19:52.831Z,15.56
2022-10-20T12:20:53.376Z,15.57
2022-10-20T12:21:53.625Z,15.56
2022-10-20T12:22:53.428Z,15.59
2022-10-20T12:24:13.697Z,15.64
2022-10-20T12:24:53.486Z,15.67
2022-10-20T12:25:53.242Z,15.72
2022-10-20T12:26:52.216Z,15.76
2022-10-20T12:27:53.397Z,15.80
2022-10-20T12:28:52.271Z,15.87
2022-10-20T12:29:52.840Z,15.96
2022-10-20T12:30:53.216Z,16.04
2022-10-20T12:31:56.242Z,16.08
2022-10-20T12:32:53.293Z,16.17
2022-10-20T12:34:12.110Z,16.31
2022-10-20T12:34:53.348Z,16.35
2022-10-20T12:35:53.125Z,16.53
2022-10-20T12:36:53.417Z,16.70
2022-10-20T12:37:53.183Z,16.91
2022-10-20T12:38:53.483Z,17.06
2022-10-20T12:39:52.756Z,17.23
2022-10-20T12:40:52.344Z,17.31
2022-10-20T12:41:53.304Z,17.23
2022-10-20T12:42:51.940Z,17.21
2022-10-20T12:44:12.688Z,17.31
2022-10-20T12:44:51.848Z,17.31
2022-10-20T12:45:52.361Z,17.23
2022-10-20T12:46:52.364Z,17.16
2022-10-20T12:47:53.072Z,17.11
2022-10-20T12:48:52.845Z,17.08
2022-10-20T12:49:53.125Z,17.19
2022-10-20T12:50:53.438Z,17.21
2022-10-20T12:51:52.402Z,17.15
2022-10-20T12:52:52.987Z,17.12
2022-10-20T12:54:11.803Z,17.14
2022-10-20T12:54:53.001Z,17.15
2022-10-20T12:55:53.298Z,17.12
2022-10-20T12:56:51.671Z,17.15